• Join FlightAware (Why Join?)
  • Login
  • US Flag 
02:23AM EDT


 

Airport Tracker/Info


-or-


 

Live Flight TrackerFlight Track Log ✈ UAL235 ✈ 26-May-2012 ✈ KGRR - KORD

Flight Track Log - Related Links

Times and Time Zones

All times are in EDT time to prevent confusion due to time zone crossing. See the UAL235 flight status page for this flight to view local times or setup timezone preferences in your user account.

Time Position Orientation Groundspeed Altitude Reporting Facility
EDT Latitude Longitude Course Direction KTS MPH feet Rate Location/Type
03:11PM 42.8685 -85.5575 239° Southwest  Level FlightAware Approximate
03:12PM 42.8455 -85.6227 86° East  Level FlightAware Approximate
03:13PM 42.8461 -85.6089 263° West 218 251 5,500  Level Chicago Center
03:17PM 42.8067 -86.0186 260° West 277 319 16,000 2,100 Climbing Chicago Center
03:18PM 42.7947 -86.1128 263° West 282 325 16,000  Level Chicago Center
03:19PM 42.7853 -86.2208 260° West 282 325 16,000  Level Chicago Center
03:20PM 42.7714 -86.3289 244° Southwest 282 325 16,000  Level Chicago Center
03:21PM 42.7364 -86.4269 241° Southwest 287 330 16,000  Level Chicago Center
03:22PM 42.6972 -86.5247 241° Southwest 292 336 16,000 -600 Level Chicago Center
03:23PM 42.6481 -86.6428 242° Southwest 308 354 14,900 -1,320 Descending Chicago Center
03:24PM 42.6047 -86.7517 241° Southwest 328 377 13,400 -1,500 Descending Chicago Center
03:25PM 42.5611 -86.8578 241° Southwest 333 383 12,000 -1,380 Descending Chicago Center
03:26PM 42.5194 -86.9608 240° Southwest 328 377 10,700 -900 Descending Chicago Center
03:27PM 42.4797 -87.0553 246° West 314 361 10,200 -600 Descending Chicago Center
03:28PM 42.4503 -87.1436 247° West 290 334 9,600 -600 Descending Chicago Center
03:29PM 42.4247 -87.2261 249° West 285 328 9,100 -360 Descending Chicago Center
03:30PM 42.3953 -87.3311 239° Southwest 280 322 9,000 -180 Descending Chicago Center
03:31PM 42.3511 -87.4308 229° Southwest 280 322 8,800 -780 Descending Chicago Center
03:32PM 42.3003 -87.5111 228° Southwest 280 322 7,500 -1,200 Descending Chicago Center
03:33PM 42.2514 -87.5856 228° Southwest 280 322 6,400 -1,380 Descending Chicago Center
03:34PM 42.2025 -87.6597 229° Southwest 275 316 4,800 -1,200 Descending Chicago Center
03:35PM 42.1578 -87.7281 217° Southwest 263 303 4,100 -540 Descending Chicago Center
03:36PM 42.1103 -87.7769 217° Southwest 242 278 3,800 -300 Descending Chicago Center